sensor_id;sensor_type;location;lat;lon;timestamp;P1;durP1;ratioP1;P2;durP2;ratioP2
54452;SDS011;40363;52.270;10.546;2024-03-23T01:34:20;12.40;;;3.30;;
54452;SDS011;40363;52.270;10.546;2024-03-23T01:36:47;7.38;;;3.10;;
54452;SDS011;40363;52.270;10.546;2024-03-23T01:39:12;9.48;;;3.20;;
54452;SDS011;40363;52.270;10.546;2024-03-23T01:41:39;9.27;;;2.80;;
54452;SDS011;40363;52.270;10.546;2024-03-23T01:44:07;7.32;;;2.47;;
54452;SDS011;40363;52.270;10.546;2024-03-23T01:46:34;6.68;;;2.63;;
54452;SDS011;40363;52.270;10.546;2024-03-23T01:49:00;6.78;;;2.13;;
54452;SDS011;40363;52.270;10.546;2024-03-23T01:51:28;6.22;;;2.42;;
54452;SDS011;40363;52.270;10.546;2024-03-23T01:53:55;5.15;;;2.33;;
54452;SDS011;40363;52.270;10.546;2024-03-23T01:56:22;7.68;;;3.13;;
54452;SDS011;40363;52.270;10.546;2024-03-23T01:58:48;11.27;;;3.15;;
54452;SDS011;40363;52.270;10.546;2024-03-23T02:01:15;7.95;;;2.50;;
54452;SDS011;40363;52.270;10.546;2024-03-23T02:03:40;9.52;;;2.97;;
54452;SDS011;40363;52.270;10.546;2024-03-23T02:06:07;6.28;;;2.13;;
54452;SDS011;40363;52.270;10.546;2024-03-23T02:08:35;8.93;;;2.42;;
54452;SDS011;40363;52.270;10.546;2024-03-23T02:11:02;7.50;;;2.75;;
54452;SDS011;40363;52.270;10.546;2024-03-23T02:13:27;8.75;;;1.95;;
54452;SDS011;40363;52.270;10.546;2024-03-23T02:15:54;6.30;;;2.13;;
54452;SDS011;40363;52.270;10.546;2024-03-23T02:18:20;4.80;;;2.13;;
54452;SDS011;40363;52.270;10.546;2024-03-23T02:20:46;7.78;;;1.95;;
54452;SDS011;40363;52.270;10.546;2024-03-23T02:23:16;6.60;;;2.05;;
54452;SDS011;40363;52.270;10.546;2024-03-23T02:25:44;6.70;;;2.60;;
54452;SDS011;40363;52.270;10.546;2024-03-23T02:28:10;6.07;;;2.13;;
54452;SDS011;40363;52.270;10.546;2024-03-23T02:30:37;9.68;;;2.55;;
54452;SDS011;40363;52.270;10.546;2024-03-23T02:33:02;7.70;;;2.45;;
54452;SDS011;40363;52.270;10.546;2024-03-23T02:35:29;6.72;;;2.10;;
54452;SDS011;40363;52.270;10.546;2024-03-23T02:37:55;4.97;;;2.05;;
54452;SDS011;40363;52.270;10.546;2024-03-23T02:40:23;6.50;;;2.88;;
54452;SDS011;40363;52.270;10.546;2024-03-23T02:42:49;6.28;;;2.10;;
54452;SDS011;40363;52.270;10.546;2024-03-23T02:45:17;5.38;;;2.05;;
54452;SDS011;40363;52.270;10.546;2024-03-23T02:47:42;5.35;;;2.78;;
54452;SDS011;40363;52.270;10.546;2024-03-23T02:50:09;9.00;;;2.30;;
54452;SDS011;40363;52.270;10.546;2024-03-23T02:52:35;8.18;;;2.90;;
54452;SDS011;40363;52.270;10.546;2024-03-23T02:55:02;7.15;;;2.38;;
54452;SDS011;40363;52.270;10.546;2024-03-23T02:57:29;5.28;;;1.88;;
54452;SDS011;40363;52.270;10.546;2024-03-23T02:59:56;5.93;;;2.40;;
54452;SDS011;40363;52.270;10.546;2024-03-23T03:02:22;7.40;;;2.15;;
54452;SDS011;40363;52.270;10.546;2024-03-23T03:04:49;9.60;;;3.58;;
54452;SDS011;40363;52.270;10.546;2024-03-23T03:07:14;9.55;;;2.53;;
54452;SDS011;40363;52.270;10.546;2024-03-23T03:09:41;4.72;;;2.38;;
54452;SDS011;40363;52.270;10.546;2024-03-23T03:12:07;6.65;;;2.33;;
54452;SDS011;40363;52.270;10.546;2024-03-23T03:14:35;9.55;;;2.33;;
54452;SDS011;40363;52.270;10.546;2024-03-23T03:17:01;8.43;;;2.42;;
54452;SDS011;40363;52.270;10.546;2024-03-23T03:19:27;8.50;;;2.83;;
54452;SDS011;40363;52.270;10.546;2024-03-23T03:21:53;7.00;;;2.38;;
54452;SDS011;40363;52.270;10.546;2024-03-23T03:24:19;10.27;;;2.80;;
54452;SDS011;40363;52.270;10.546;2024-03-23T03:26:45;5.82;;;2.22;;
54452;SDS011;40363;52.270;10.546;2024-03-23T03:29:12;9.68;;;2.25;;
54452;SDS011;40363;52.270;10.546;2024-03-23T03:31:39;10.48;;;2.63;;
54452;SDS011;40363;52.270;10.546;2024-03-23T03:34:06;9.65;;;2.15;;
54452;SDS011;40363;52.270;10.546;2024-03-23T03:36:31;3.90;;;2.05;;
54452;SDS011;40363;52.270;10.546;2024-03-23T03:38:58;3.95;;;2.30;;
54452;SDS011;40363;52.270;10.546;2024-03-23T03:41:24;5.57;;;2.67;;
54452;SDS011;40363;52.270;10.546;2024-03-23T03:43:50;7.07;;;2.45;;
54452;SDS011;40363;52.270;10.546;2024-03-23T03:46:16;3.30;;;1.83;;
54452;SDS011;40363;52.270;10.546;2024-03-23T03:48:44;4.55;;;2.15;;
54452;SDS011;40363;52.270;10.546;2024-03-23T03:51:11;5.03;;;1.63;;
54452;SDS011;40363;52.270;10.546;2024-03-23T03:53:38;6.60;;;2.42;;
54452;SDS011;40363;52.270;10.546;2024-03-23T03:56:04;7.43;;;2.38;;
54452;SDS011;40363;52.270;10.546;2024-03-23T03:58:30;6.40;;;2.45;;
54452;SDS011;40363;52.270;10.546;2024-03-23T04:00:56;6.50;;;1.80;;
54452;SDS011;40363;52.270;10.546;2024-03-23T04:03:23;5.07;;;2.20;;
54452;SDS011;40363;52.270;10.546;2024-03-23T04:05:53;5.20;;;2.05;;
54452;SDS011;40363;52.270;10.546;2024-03-23T04:08:20;8.88;;;2.33;;
54452;SDS011;40363;52.270;10.546;2024-03-23T04:10:46;9.70;;;2.95;;
54452;SDS011;40363;52.270;10.546;2024-03-23T04:13:13;6.97;;;2.10;;
54452;SDS011;40363;52.270;10.546;2024-03-23T04:15:39;8.13;;;3.30;;
54452;SDS011;40363;52.270;10.546;2024-03-23T04:18:06;6.75;;;2.65;;
54452;SDS011;40363;52.270;10.546;2024-03-23T04:20:31;3.97;;;1.70;;
54452;SDS011;40363;52.270;10.546;2024-03-23T04:23:00;9.50;;;2.38;;
54452;SDS011;40363;52.270;10.546;2024-03-23T04:25:26;5.97;;;2.28;;
54452;SDS011;40363;52.270;10.546;2024-03-23T04:27:52;8.15;;;1.95;;
54452;SDS011;40363;52.270;10.546;2024-03-23T04:30:18;7.43;;;2.53;;
54452;SDS011;40363;52.270;10.546;2024-03-23T04:32:46;7.55;;;2.70;;
54452;SDS011;40363;52.270;10.546;2024-03-23T04:35:12;6.00;;;1.95;;
54452;SDS011;40363;52.270;10.546;2024-03-23T04:37:39;10.82;;;2.13;;
54452;SDS011;40363;52.270;10.546;2024-03-23T04:40:08;6.00;;;2.05;;
54452;SDS011;40363;52.270;10.546;2024-03-23T04:42:36;7.75;;;2.20;;
54452;SDS011;40363;52.270;10.546;2024-03-23T04:45:04;9.38;;;2.05;;
54452;SDS011;40363;52.270;10.546;2024-03-23T04:47:32;7.15;;;1.75;;
54452;SDS011;40363;52.270;10.546;2024-03-23T04:50:00;8.93;;;2.00;;
54452;SDS011;40363;52.270;10.546;2024-03-23T04:52:29;4.22;;;2.08;;
54452;SDS011;40363;52.270;10.546;2024-03-23T04:54:56;9.10;;;2.53;;
54452;SDS011;40363;52.270;10.546;2024-03-23T04:57:23;6.90;;;1.90;;
54452;SDS011;40363;52.270;10.546;2024-03-23T04:59:50;7.05;;;1.88;;
54452;SDS011;40363;52.270;10.546;2024-03-23T05:02:16;5.43;;;1.85;;
54452;SDS011;40363;52.270;10.546;2024-03-23T05:04:43;4.55;;;2.30;;
54452;SDS011;40363;52.270;10.546;2024-03-23T05:07:08;9.18;;;1.50;;
54452;SDS011;40363;52.270;10.546;2024-03-23T05:09:36;4.88;;;2.17;;
54452;SDS011;40363;52.270;10.546;2024-03-23T05:12:02;9.73;;;2.50;;
54452;SDS011;40363;52.270;10.546;2024-03-23T05:14:30;4.75;;;2.30;;
54452;SDS011;40363;52.270;10.546;2024-03-23T05:16:56;7.20;;;1.98;;
54452;SDS011;40363;52.270;10.546;2024-03-23T05:19:22;5.13;;;2.00;;
54452;SDS011;40363;52.270;10.546;2024-03-23T05:21:48;5.43;;;2.08;;
54452;SDS011;40363;52.270;10.546;2024-03-23T05:24:15;4.80;;;1.58;;
54452;SDS011;40363;52.270;10.546;2024-03-23T05:26:41;5.82;;;2.42;;
54452;SDS011;40363;52.270;10.546;2024-03-23T05:29:07;5.63;;;1.80;;
54452;SDS011;40363;52.270;10.546;2024-03-23T05:31:37;7.30;;;2.10;;
54452;SDS011;40363;52.270;10.546;2024-03-23T05:34:06;8.75;;;2.20;;
54452;SDS011;40363;52.270;10.546;2024-03-23T05:36:32;6.43;;;1.75;;
54452;SDS011;40363;52.270;10.546;2024-03-23T05:38:58;6.75;;;2.25;;
54452;SDS011;40363;52.270;10.546;2024-03-23T05:41:24;6.93;;;2.65;;
54452;SDS011;40363;52.270;10.546;2024-03-23T05:43:50;10.55;;;2.90;;
54452;SDS011;40363;52.270;10.546;2024-03-23T05:46:16;8.77;;;2.45;;
54452;SDS011;40363;52.270;10.546;2024-03-23T05:48:44;7.18;;;1.90;;
54452;SDS011;40363;52.270;10.546;2024-03-23T05:51:10;4.50;;;1.65;;
54452;SDS011;40363;52.270;10.546;2024-03-23T05:53:38;9.30;;;1.80;;
54452;SDS011;40363;52.270;10.546;2024-03-23T05:56:03;5.60;;;1.83;;
54452;SDS011;40363;52.270;10.546;2024-03-23T05:58:31;3.78;;;1.83;;
54452;SDS011;40363;52.270;10.546;2024-03-23T06:00:57;6.35;;;1.95;;
54452;SDS011;40363;52.270;10.546;2024-03-23T06:03:25;6.63;;;2.65;;
54452;SDS011;40363;52.270;10.546;2024-03-23T06:05:52;5.82;;;2.47;;
54452;SDS011;40363;52.270;10.546;2024-03-23T06:08:19;4.85;;;1.48;;
54452;SDS011;40363;52.270;10.546;2024-03-23T06:10:45;7.43;;;1.77;;
54452;SDS011;40363;52.270;10.546;2024-03-23T06:13:11;7.35;;;1.98;;
54452;SDS011;40363;52.270;10.546;2024-03-23T06:15:37;8.40;;;2.17;;
54452;SDS011;40363;52.270;10.546;2024-03-23T06:18:04;4.60;;;1.70;;
54452;SDS011;40363;52.270;10.546;2024-03-23T06:20:30;9.73;;;2.67;;
54452;SDS011;40363;52.270;10.546;2024-03-23T06:22:59;5.45;;;1.55;;
54452;SDS011;40363;52.270;10.546;2024-03-23T06:25:25;10.23;;;1.50;;
54452;SDS011;40363;52.270;10.546;2024-03-23T06:27:51;5.78;;;1.63;;
54452;SDS011;40363;52.270;10.546;2024-03-23T06:30:17;5.80;;;2.97;;
54452;SDS011;40363;52.270;10.546;2024-03-23T06:32:44;8.43;;;1.60;;
54452;SDS011;40363;52.270;10.546;2024-03-23T06:35:09;9.93;;;2.03;;
54452;SDS011;40363;52.270;10.546;2024-03-23T06:37:36;8.68;;;2.17;;
54452;SDS011;40363;52.270;10.546;2024-03-23T06:40:04;7.25;;;1.55;;
54452;SDS011;40363;52.270;10.546;2024-03-23T06:42:34;6.72;;;1.52;;
54452;SDS011;40363;52.270;10.546;2024-03-23T06:45:00;2.55;;;1.30;;
54452;SDS011;40363;52.270;10.546;2024-03-23T06:47:27;4.95;;;1.27;;
54452;SDS011;40363;52.270;10.546;2024-03-23T06:49:52;4.45;;;1.33;;
54452;SDS011;40363;52.270;10.546;2024-03-23T06:52:19;8.90;;;1.75;;
54452;SDS011;40363;52.270;10.546;2024-03-23T06:54:45;3.22;;;0.90;;
54452;SDS011;40363;52.270;10.546;2024-03-23T06:57:13;5.68;;;1.45;;
54452;SDS011;40363;52.270;10.546;2024-03-23T06:59:39;4.40;;;1.20;;
54452;SDS011;40363;52.270;10.546;2024-03-23T07:02:06;6.45;;;1.60;;
54452;SDS011;40363;52.270;10.546;2024-03-23T07:04:33;2.35;;;0.77;;
54452;SDS011;40363;52.270;10.546;2024-03-23T07:07:00;5.78;;;1.13;;
54452;SDS011;40363;52.270;10.546;2024-03-23T07:09:27;3.35;;;1.27;;
54452;SDS011;40363;52.270;10.546;2024-03-23T07:11:54;3.15;;;2.30;;
54452;SDS011;40363;52.270;10.546;2024-03-23T07:14:22;7.72;;;1.30;;
54452;SDS011;40363;52.270;10.546;2024-03-23T07:16:49;3.28;;;1.25;;
54452;SDS011;40363;52.270;10.546;2024-03-23T07:19:15;3.90;;;1.10;;
54452;SDS011;40363;52.270;10.546;2024-03-23T07:21:42;4.97;;;1.13;;
54452;SDS011;40363;52.270;10.546;2024-03-23T07:24:08;5.78;;;1.20;;
54452;SDS011;40363;52.270;10.546;2024-03-23T07:26:35;5.80;;;0.90;;
54452;SDS011;40363;52.270;10.546;2024-03-23T07:29:01;8.10;;;1.02;;
54452;SDS011;40363;52.270;10.546;2024-03-23T07:31:30;8.30;;;1.17;;
54452;SDS011;40363;52.270;10.546;2024-03-23T07:33:56;6.45;;;1.35;;
54452;SDS011;40363;52.270;10.546;2024-03-23T07:36:23;9.50;;;1.17;;
54452;SDS011;40363;52.270;10.546;2024-03-23T07:38:49;2.70;;;1.60;;
54452;SDS011;40363;52.270;10.546;2024-03-23T07:41:17;2.65;;;0.80;;
54452;SDS011;40363;52.270;10.546;2024-03-23T07:43:44;6.50;;;1.58;;
54452;SDS011;40363;52.270;10.546;2024-03-23T07:46:11;3.47;;;0.70;;
54452;SDS011;40363;52.270;10.546;2024-03-23T07:48:38;1.48;;;0.50;;
54452;SDS011;40363;52.270;10.546;2024-03-23T07:51:07;10.27;;;1.33;;
54452;SDS011;40363;52.270;10.546;2024-03-23T07:53:34;4.55;;;1.10;;
54452;SDS011;40363;52.270;10.546;2024-03-23T07:56:02;1.63;;;0.80;;
54452;SDS011;40363;52.270;10.546;2024-03-23T07:58:30;3.47;;;1.30;;
54452;SDS011;40363;52.270;10.546;2024-03-23T08:01:03;6.72;;;1.42;;
54452;SDS011;40363;52.270;10.546;2024-03-23T08:03:30;2.97;;;1.10;;
54452;SDS011;40363;52.270;10.546;2024-03-23T08:05:58;5.30;;;1.38;;
54452;SDS011;40363;52.270;10.546;2024-03-23T08:08:31;3.17;;;1.27;;
54452;SDS011;40363;52.270;10.546;2024-03-23T08:10:57;6.13;;;1.23;;
54452;SDS011;40363;52.270;10.546;2024-03-23T08:13:23;6.03;;;1.55;;
54452;SDS011;40363;52.270;10.546;2024-03-23T08:15:50;3.75;;;1.20;;
54452;SDS011;40363;52.270;10.546;2024-03-23T08:18:15;2.35;;;1.00;;
54452;SDS011;40363;52.270;10.546;2024-03-23T08:20:42;5.32;;;1.58;;
54452;SDS011;40363;52.270;10.546;2024-03-23T08:23:09;3.63;;;1.63;;
54452;SDS011;40363;52.270;10.546;2024-03-23T08:25:35;2.45;;;0.73;;
54452;SDS011;40363;52.270;10.546;2024-03-23T08:28:01;9.82;;;1.23;;
54452;SDS011;40363;52.270;10.546;2024-03-23T08:30:28;6.45;;;1.00;;
54452;SDS011;40363;52.270;10.546;2024-03-23T08:32:54;6.03;;;1.30;;
54452;SDS011;40363;52.270;10.546;2024-03-23T08:35:21;8.73;;;1.58;;
54452;SDS011;40363;52.270;10.546;2024-03-23T08:37:46;5.60;;;1.30;;
54452;SDS011;40363;52.270;10.546;2024-03-23T08:40:15;2.25;;;1.50;;
54452;SDS011;40363;52.270;10.546;2024-03-23T08:42:40;5.38;;;1.83;;
54452;SDS011;40363;52.270;10.546;2024-03-23T08:45:07;5.53;;;1.13;;
54452;SDS011;40363;52.270;10.546;2024-03-23T08:47:34;5.10;;;1.67;;
54452;SDS011;40363;52.270;10.546;2024-03-23T08:50:01;4.32;;;1.00;;
54452;SDS011;40363;52.270;10.546;2024-03-23T08:52:27;2.88;;;1.40;;
54452;SDS011;40363;52.270;10.546;2024-03-23T08:54:54;5.22;;;1.30;;
54452;SDS011;40363;52.270;10.546;2024-03-23T08:57:22;6.35;;;1.67;;
54452;SDS011;40363;52.270;10.546;2024-03-23T08:59:49;4.30;;;1.80;;
54452;SDS011;40363;52.270;10.546;2024-03-23T09:02:14;7.35;;;1.52;;
54452;SDS011;40363;52.270;10.546;2024-03-23T09:04:41;6.82;;;1.58;;
54452;SDS011;40363;52.270;10.546;2024-03-23T09:07:07;7.85;;;2.33;;
54452;SDS011;40363;52.270;10.546;2024-03-23T09:09:34;5.97;;;1.45;;
54452;SDS011;40363;52.270;10.546;2024-03-23T09:12:01;3.72;;;1.58;;
54452;SDS011;40363;52.270;10.546;2024-03-23T09:17:21;6.63;;;2.05;;
54452;SDS011;40363;52.270;10.546;2024-03-23T09:19:48;5.22;;;1.92;;
54452;SDS011;40363;52.270;10.546;2024-03-23T09:22:14;6.82;;;1.88;;
54452;SDS011;40363;52.270;10.546;2024-03-23T09:24:41;8.18;;;2.58;;
54452;SDS011;40363;52.270;10.546;2024-03-23T09:27:06;5.90;;;2.67;;
54452;SDS011;40363;52.270;10.546;2024-03-23T09:29:33;7.47;;;2.40;;
54452;SDS011;40363;52.270;10.546;2024-03-23T09:32:00;4.80;;;2.08;;
54452;SDS011;40363;52.270;10.546;2024-03-23T09:34:26;9.25;;;1.88;;
54452;SDS011;40363;52.270;10.546;2024-03-23T09:36:52;8.25;;;2.40;;
54452;SDS011;40363;52.270;10.546;2024-03-23T09:39:19;7.70;;;2.17;;
54452;SDS011;40363;52.270;10.546;2024-03-23T09:41:44;8.55;;;1.88;;
54452;SDS011;40363;52.270;10.546;2024-03-23T09:44:11;5.65;;;2.20;;
54452;SDS011;40363;52.270;10.546;2024-03-23T09:46:37;11.68;;;2.90;;
54452;SDS011;40363;52.270;10.546;2024-03-23T09:49:06;8.68;;;3.03;;
54452;SDS011;40363;52.270;10.546;2024-03-23T09:51:33;8.68;;;3.05;;
54452;SDS011;40363;52.270;10.546;2024-03-23T09:54:02;11.60;;;3.58;;
54452;SDS011;40363;52.270;10.546;2024-03-23T09:56:27;17.38;;;4.30;;
54452;SDS011;40363;52.270;10.546;2024-03-23T09:59:00;13.30;;;4.65;;
54452;SDS011;40363;52.270;10.546;2024-03-23T10:01:26;8.95;;;4.22;;
54452;SDS011;40363;52.270;10.546;2024-03-23T10:03:53;13.27;;;3.30;;
54452;SDS011;40363;52.270;10.546;2024-03-23T10:06:22;7.97;;;3.58;;
54452;SDS011;40363;52.270;10.546;2024-03-23T10:08:49;7.80;;;3.47;;
54452;SDS011;40363;52.270;10.546;2024-03-23T10:11:15;8.43;;;3.35;;
54452;SDS011;40363;52.270;10.546;2024-03-23T10:13:44;10.40;;;4.05;;
54452;SDS011;40363;52.270;10.546;2024-03-23T10:16:11;10.75;;;3.67;;
54452;SDS011;40363;52.270;10.546;2024-03-23T10:18:38;9.95;;;3.88;;
54452;SDS011;40363;52.270;10.546;2024-03-23T10:21:07;10.15;;;4.10;;
54452;SDS011;40363;52.270;10.546;2024-03-23T10:23:38;10.88;;;3.88;;
54452;SDS011;40363;52.270;10.546;2024-03-23T10:26:12;6.32;;;3.28;;
54452;SDS011;40363;52.270;10.546;2024-03-23T10:28:50;11.90;;;3.60;;
54452;SDS011;40363;52.270;10.546;2024-03-23T10:31:17;9.82;;;3.65;;
54452;SDS011;40363;52.270;10.546;2024-03-23T10:33:44;8.63;;;2.47;;
54452;SDS011;40363;52.270;10.546;2024-03-23T10:36:11;9.75;;;2.70;;
54452;SDS011;40363;52.270;10.546;2024-03-23T10:38:40;9.30;;;2.80;;
54452;SDS011;40363;52.270;10.546;2024-03-23T10:41:07;4.93;;;2.15;;
54452;SDS011;40363;52.270;10.546;2024-03-23T10:43:34;6.75;;;2.42;;
54452;SDS011;40363;52.270;10.546;2024-03-23T10:46:02;10.02;;;3.00;;
54452;SDS011;40363;52.270;10.546;2024-03-23T10:48:28;3.38;;;2.78;;
54452;SDS011;40363;52.270;10.546;2024-03-23T10:50:54;9.02;;;2.60;;
54452;SDS011;40363;52.270;10.546;2024-03-23T10:53:21;11.98;;;2.95;;
54452;SDS011;40363;52.270;10.546;2024-03-23T10:55:52;8.43;;;2.55;;
54452;SDS011;40363;52.270;10.546;2024-03-23T10:58:21;6.03;;;1.95;;
54452;SDS011;40363;52.270;10.546;2024-03-23T11:00:51;4.28;;;1.70;;
54452;SDS011;40363;52.270;10.546;2024-03-23T11:03:31;5.03;;;1.38;;
54452;SDS011;40363;52.270;10.546;2024-03-23T11:05:59;6.35;;;1.73;;
54452;SDS011;40363;52.270;10.546;2024-03-23T11:08:35;6.60;;;1.98;;
54452;SDS011;40363;52.270;10.546;2024-03-23T11:11:13;6.40;;;2.42;;
54452;SDS011;40363;52.270;10.546;2024-03-23T11:13:43;4.93;;;1.58;;
54452;SDS011;40363;52.270;10.546;2024-03-23T11:16:12;7.40;;;1.75;;
54452;SDS011;40363;52.270;10.546;2024-03-23T11:18:39;4.32;;;1.55;;
54452;SDS011;40363;52.270;10.546;2024-03-23T11:21:07;6.18;;;2.05;;
54452;SDS011;40363;52.270;10.546;2024-03-23T11:23:33;7.53;;;1.95;;
54452;SDS011;40363;52.270;10.546;2024-03-23T11:25:59;4.60;;;1.65;;
54452;SDS011;40363;52.270;10.546;2024-03-23T11:28:27;9.93;;;2.25;;
54452;SDS011;40363;52.270;10.546;2024-03-23T11:30:53;3.47;;;1.65;;
54452;SDS011;40363;52.270;10.546;2024-03-23T11:33:19;7.45;;;2.30;;
54452;SDS011;40363;52.270;10.546;2024-03-23T11:35:46;7.57;;;2.22;;
54452;SDS011;40363;52.270;10.546;2024-03-23T11:38:12;3.70;;;1.35;;
54452;SDS011;40363;52.270;10.546;2024-03-23T11:40:40;8.57;;;2.05;;
54452;SDS011;40363;52.270;10.546;2024-03-23T11:43:07;4.22;;;1.20;;
54452;SDS011;40363;52.270;10.546;2024-03-23T11:45:37;4.72;;;1.75;;
54452;SDS011;40363;52.270;10.546;2024-03-23T11:48:05;5.28;;;1.30;;
54452;SDS011;40363;52.270;10.546;2024-03-23T11:50:33;3.17;;;1.35;;
54452;SDS011;40363;52.270;10.546;2024-03-23T11:53:06;4.93;;;1.30;;
54452;SDS011;40363;52.270;10.546;2024-03-23T11:55:41;2.10;;;1.15;;
54452;SDS011;40363;52.270;10.546;2024-03-23T11:58:07;3.17;;;0.93;;
54452;SDS011;40363;52.270;10.546;2024-03-23T12:00:34;2.00;;;0.88;;
54452;SDS011;40363;52.270;10.546;2024-03-23T12:03:01;1.92;;;1.05;;
54452;SDS011;40363;52.270;10.546;2024-03-23T12:05:28;2.30;;;1.00;;
54452;SDS011;40363;52.270;10.546;2024-03-23T12:07:54;1.92;;;1.10;;
54452;SDS011;40363;52.270;10.546;2024-03-23T12:10:21;4.43;;;1.50;;
54452;SDS011;40363;52.270;10.546;2024-03-23T12:12:58;3.55;;;1.50;;
54452;SDS011;40363;52.270;10.546;2024-03-23T12:15:25;7.35;;;2.17;;
54452;SDS011;40363;52.270;10.546;2024-03-23T12:17:52;2.63;;;1.40;;
54452;SDS011;40363;52.270;10.546;2024-03-23T12:20:33;2.05;;;1.13;;
54452;SDS011;40363;52.270;10.546;2024-03-23T12:23:05;2.72;;;1.27;;
54452;SDS011;40363;52.270;10.546;2024-03-23T12:25:32;4.45;;;1.48;;
54452;SDS011;40363;52.270;10.546;2024-03-23T12:27:58;2.35;;;1.20;;
54452;SDS011;40363;52.270;10.546;2024-03-23T12:30:25;2.30;;;0.93;;
54452;SDS011;40363;52.270;10.546;2024-03-23T12:32:51;3.25;;;1.13;;
54452;SDS011;40363;52.270;10.546;2024-03-23T12:35:19;1.40;;;1.10;;
54452;SDS011;40363;52.270;10.546;2024-03-23T12:37:44;3.20;;;0.75;;
54452;SDS011;40363;52.270;10.546;2024-03-23T12:40:11;2.20;;;1.02;;
54452;SDS011;40363;52.270;10.546;2024-03-23T12:42:37;1.92;;;0.75;;
54452;SDS011;40363;52.270;10.546;2024-03-23T12:45:04;3.05;;;0.90;;
54452;SDS011;40363;52.270;10.546;2024-03-23T12:47:30;1.88;;;0.70;;
54452;SDS011;40363;52.270;10.546;2024-03-23T12:49:57;2.28;;;0.80;;
54452;SDS011;40363;52.270;10.546;2024-03-23T12:52:24;1.67;;;1.05;;
54452;SDS011;40363;52.270;10.546;2024-03-23T12:54:54;1.30;;;1.00;;
54452;SDS011;40363;52.270;10.546;2024-03-23T12:57:21;4.20;;;1.00;;
54452;SDS011;40363;52.270;10.546;2024-03-23T12:59:48;4.65;;;1.42;;
54452;SDS011;40363;52.270;10.546;2024-03-23T13:02:16;4.97;;;1.27;;
54452;SDS011;40363;52.270;10.546;2024-03-23T13:04:46;2.53;;;1.13;;
54452;SDS011;40363;52.270;10.546;2024-03-23T13:07:14;3.13;;;1.08;;
54452;SDS011;40363;52.270;10.546;2024-03-23T13:09:42;3.47;;;1.20;;
54452;SDS011;40363;52.270;10.546;2024-03-23T13:12:08;4.38;;;1.40;;
54452;SDS011;40363;52.270;10.546;2024-03-23T13:14:35;2.22;;;1.00;;
54452;SDS011;40363;52.270;10.546;2024-03-23T13:17:01;2.17;;;1.23;;
54452;SDS011;40363;52.270;10.546;2024-03-23T13:19:29;2.55;;;1.23;;
54452;SDS011;40363;52.270;10.546;2024-03-23T13:21:56;2.70;;;1.10;;
54452;SDS011;40363;52.270;10.546;2024-03-23T13:24:23;5.63;;;1.55;;
54452;SDS011;40363;52.270;10.546;2024-03-23T13:26:50;5.18;;;1.80;;
54452;SDS011;40363;52.270;10.546;2024-03-23T13:29:17;2.55;;;1.63;;
54452;SDS011;40363;52.270;10.546;2024-03-23T13:31:43;4.90;;;1.67;;
54452;SDS011;40363;52.270;10.546;2024-03-23T13:34:10;2.20;;;1.65;;
54452;SDS011;40363;52.270;10.546;2024-03-23T13:36:35;3.70;;;1.55;;
54452;SDS011;40363;52.270;10.546;2024-03-23T13:39:02;6.72;;;1.83;;
54452;SDS011;40363;52.270;10.546;2024-03-23T13:41:31;2.13;;;1.40;;
54452;SDS011;40363;52.270;10.546;2024-03-23T13:43:59;5.00;;;2.05;;
54452;SDS011;40363;52.270;10.546;2024-03-23T13:46:25;3.92;;;1.55;;
54452;SDS011;40363;52.270;10.546;2024-03-23T13:48:51;4.82;;;1.40;;
54452;SDS011;40363;52.270;10.546;2024-03-23T13:51:22;5.57;;;2.15;;
54452;SDS011;40363;52.270;10.546;2024-03-23T13:53:50;3.05;;;1.75;;
54452;SDS011;40363;52.270;10.546;2024-03-23T13:56:15;2.58;;;1.48;;
54452;SDS011;40363;52.270;10.546;2024-03-23T13:58:42;3.08;;;1.98;;
54452;SDS011;40363;52.270;10.546;2024-03-23T14:01:13;3.15;;;1.38;;
54452;SDS011;40363;52.270;10.546;2024-03-23T14:03:40;4.65;;;1.33;;
54452;SDS011;40363;52.270;10.546;2024-03-23T14:06:06;1.73;;;1.02;;
54452;SDS011;40363;52.270;10.546;2024-03-23T14:08:33;2.35;;;1.40;;
54452;SDS011;40363;52.270;10.546;2024-03-23T14:11:01;2.60;;;1.40;;
54452;SDS011;40363;52.270;10.546;2024-03-23T14:13:30;2.70;;;0.70;;
54452;SDS011;40363;52.270;10.546;2024-03-23T14:15:56;2.13;;;0.77;;
54452;SDS011;40363;52.270;10.546;2024-03-23T14:18:25;1.98;;;0.63;;
54452;SDS011;40363;52.270;10.546;2024-03-23T14:20:51;1.90;;;0.50;;
54452;SDS011;40363;52.270;10.546;2024-03-23T14:23:18;0.90;;;0.70;;
54452;SDS011;40363;52.270;10.546;2024-03-23T14:25:44;1.58;;;0.70;;
54452;SDS011;40363;52.270;10.546;2024-03-23T14:28:11;1.75;;;0.70;;
54452;SDS011;40363;52.270;10.546;2024-03-23T14:30:39;2.13;;;0.90;;
54452;SDS011;40363;52.270;10.546;2024-03-23T14:33:07;2.92;;;1.00;;
54452;SDS011;40363;52.270;10.546;2024-03-23T14:35:34;2.90;;;0.57;;
54452;SDS011;40363;52.270;10.546;2024-03-23T14:38:00;2.47;;;1.00;;
54452;SDS011;40363;52.270;10.546;2024-03-23T14:40:26;1.50;;;0.93;;
54452;SDS011;40363;52.270;10.546;2024-03-23T14:42:53;5.57;;;1.95;;
54452;SDS011;40363;52.270;10.546;2024-03-23T14:45:19;3.13;;;1.20;;
54452;SDS011;40363;52.270;10.546;2024-03-23T14:47:46;3.53;;;1.15;;
54452;SDS011;40363;52.270;10.546;2024-03-23T14:50:12;3.40;;;1.80;;
54452;SDS011;40363;52.270;10.546;2024-03-23T14:52:42;3.38;;;1.02;;
54452;SDS011;40363;52.270;10.546;2024-03-23T14:55:09;3.38;;;1.45;;
54452;SDS011;40363;52.270;10.546;2024-03-23T14:57:36;4.72;;;1.50;;
54452;SDS011;40363;52.270;10.546;2024-03-23T15:00:01;2.47;;;1.40;;
54452;SDS011;40363;52.270;10.546;2024-03-23T15:02:30;3.75;;;1.55;;
54452;SDS011;40363;52.270;10.546;2024-03-23T15:04:57;2.42;;;1.38;;
54452;SDS011;40363;52.270;10.546;2024-03-23T15:07:24;3.60;;;1.83;;
54452;SDS011;40363;52.270;10.546;2024-03-23T15:09:50;1.90;;;1.50;;
54452;SDS011;40363;52.270;10.546;2024-03-23T15:12:18;3.05;;;1.65;;
54452;SDS011;40363;52.270;10.546;2024-03-23T15:14:43;4.80;;;1.10;;
54452;SDS011;40363;52.270;10.546;2024-03-23T15:17:11;2.65;;;1.27;;
54452;SDS011;40363;52.270;10.546;2024-03-23T15:19:36;2.42;;;1.55;;
54452;SDS011;40363;52.270;10.546;2024-03-23T15:22:03;4.57;;;2.00;;
54452;SDS011;40363;52.270;10.546;2024-03-23T15:24:29;2.72;;;1.40;;
54452;SDS011;40363;52.270;10.546;2024-03-23T15:26:58;5.05;;;1.83;;
54452;SDS011;40363;52.270;10.546;2024-03-23T15:29:23;5.38;;;1.20;;
54452;SDS011;40363;52.270;10.546;2024-03-23T15:31:50;1.63;;;1.17;;
54452;SDS011;40363;52.270;10.546;2024-03-23T15:34:17;0.80;;;0.60;;
54452;SDS011;40363;52.270;10.546;2024-03-23T15:36:45;2.10;;;1.02;;
54452;SDS011;40363;52.270;10.546;2024-03-23T15:39:10;3.20;;;1.27;;
54452;SDS011;40363;52.270;10.546;2024-03-23T15:41:38;0.70;;;0.60;;
54452;SDS011;40363;52.270;10.546;2024-03-23T15:44:05;1.90;;;0.52;;
54452;SDS011;40363;52.270;10.546;2024-03-23T15:46:32;0.70;;;0.70;;
54452;SDS011;40363;52.270;10.546;2024-03-23T15:48:57;3.60;;;1.00;;
54452;SDS011;40363;52.270;10.546;2024-03-23T15:51:25;0.80;;;0.63;;
54452;SDS011;40363;52.270;10.546;2024-03-23T15:53:56;1.38;;;0.98;;
54452;SDS011;40363;52.270;10.546;2024-03-23T15:56:23;1.00;;;0.60;;
54452;SDS011;40363;52.270;10.546;2024-03-23T15:58:48;1.50;;;0.77;;
54452;SDS011;40363;52.270;10.546;2024-03-23T16:01:16;1.67;;;0.60;;
54452;SDS011;40363;52.270;10.546;2024-03-23T16:03:42;0.88;;;0.63;;
54452;SDS011;40363;52.270;10.546;2024-03-23T16:06:08;2.05;;;0.70;;
54452;SDS011;40363;52.270;10.546;2024-03-23T16:08:34;0.70;;;0.63;;